createdAt,value
2022-08-08T00:00:52.193Z,1.13
2022-08-08T00:02:31.325Z,1.60
2022-08-08T00:05:14.458Z,1.30
2022-08-08T00:07:50.085Z,2.00
2022-08-08T00:10:28.166Z,1.83
2022-08-08T00:13:04.353Z,1.67
2022-08-08T00:15:57.586Z,1.30
2022-08-08T00:18:29.811Z,1.80
2022-08-08T00:21:05.162Z,1.57
2022-08-08T00:23:43.226Z,1.53
2022-08-08T00:26:26.046Z,1.60
2022-08-08T00:28:56.360Z,1.67
2022-08-08T00:32:16.256Z,1.20
2022-08-08T00:34:45.995Z,1.60
2022-08-08T00:37:47.786Z,1.17
2022-08-08T00:41:10.900Z,1.70
2022-08-08T00:43:23.657Z,1.67
2022-08-08T00:46:16.578Z,1.90
2022-08-08T00:49:01.061Z,1.63
2022-08-08T00:51:53.489Z,1.80
2022-08-08T00:54:43.221Z,1.90
2022-08-08T00:57:29.561Z,1.47
2022-08-08T01:00:10.953Z,1.40
2022-08-08T01:03:59.666Z,1.70
2022-08-08T01:06:05.329Z,1.80
2022-08-08T01:08:51.843Z,1.37
2022-08-08T01:11:44.614Z,1.50
2022-08-08T01:14:54.051Z,1.90
2022-08-08T01:17:53.944Z,2.03
2022-08-08T01:20:49.525Z,1.93
2022-08-08T01:24:03.253Z,1.47
2022-08-08T01:26:50.418Z,2.20
2022-08-08T01:29:35.584Z,1.80
2022-08-08T01:32:51.933Z,1.70
2022-08-08T01:35:30.729Z,1.40
2022-08-08T01:38:15.304Z,1.53
2022-08-08T01:40:48.633Z,1.90
2022-08-08T01:43:25.249Z,2.00
2022-08-08T01:46:09.419Z,1.77
2022-08-08T01:48:46.283Z,1.57
2022-08-08T01:52:41.010Z,1.60
2022-08-08T01:55:19.325Z,1.70
2022-08-08T01:57:23.031Z,1.27
2022-08-08T02:00:03.615Z,1.70
2022-08-08T02:02:42.457Z,1.40
2022-08-08T02:05:19.044Z,1.73
2022-08-08T02:08:01.833Z,2.47
2022-08-08T02:10:37.196Z,1.60
2022-08-08T02:13:54.060Z,1.77
2022-08-08T02:16:12.173Z,2.10
2022-08-08T02:18:58.550Z,2.20
2022-08-08T02:21:49.350Z,1.40
2022-08-08T02:24:23.896Z,2.03
2022-08-08T02:26:58.148Z,2.10
2022-08-08T02:29:47.073Z,1.83
2022-08-08T02:32:33.203Z,1.73
2022-08-08T02:35:19.977Z,2.23
2022-08-08T02:38:05.565Z,1.47
2022-08-08T02:40:45.049Z,1.70
2022-08-08T02:44:38.863Z,2.00
2022-08-08T02:46:45.686Z,1.83
2022-08-08T02:49:51.133Z,1.53
2022-08-08T02:52:50.280Z,1.70
2022-08-08T02:55:44.225Z,1.70
2022-08-08T02:58:47.704Z,1.57
2022-08-08T03:01:32.599Z,1.90
2022-08-08T03:05:03.067Z,1.90
2022-08-08T03:07:58.170Z,2.00
2022-08-08T03:10:44.313Z,1.30
2022-08-08T03:15:59.223Z,1.90
2022-08-08T03:16:37.326Z,1.70
2022-08-08T03:19:22.484Z,1.87
2022-08-08T03:21:58.704Z,1.33
2022-08-08T03:24:29.600Z,2.13
2022-08-08T03:27:00.518Z,2.40
2022-08-08T03:29:54.900Z,1.87
2022-08-08T03:33:03.747Z,1.83
2022-08-08T03:35:39.367Z,1.53
2022-08-08T03:38:56.608Z,1.37
2022-08-08T03:40:57.862Z,1.97
2022-08-08T03:43:38.279Z,1.83
2022-08-08T03:46:09.364Z,2.10
2022-08-08T03:49:30.340Z,1.80
2022-08-08T03:51:47.093Z,1.57
2022-08-08T03:54:15.364Z,1.97
2022-08-08T03:58:31.498Z,1.50
2022-08-08T04:00:02.465Z,1.83
2022-08-08T04:02:51.734Z,2.00
2022-08-08T04:05:28.488Z,1.77
2022-08-08T04:07:57.961Z,1.60
2022-08-08T04:10:32.329Z,1.70
2022-08-08T04:13:03.752Z,2.13
2022-08-08T04:16:03.936Z,1.77
2022-08-08T04:18:41.928Z,2.00
2022-08-08T04:21:13.414Z,2.20
2022-08-08T04:24:05.368Z,2.03
2022-08-08T04:26:57.635Z,1.77
2022-08-08T04:29:26.140Z,1.60
2022-08-08T04:31:58.959Z,1.60
2022-08-08T04:34:32.381Z,1.70
2022-08-08T04:37:12.255Z,1.63
2022-08-08T04:40:06.115Z,2.03
2022-08-08T04:42:31.850Z,2.20
2022-08-08T04:45:02.713Z,2.30
2022-08-08T04:47:31.006Z,2.07
2022-08-08T04:50:04.570Z,2.27
2022-08-08T04:52:35.064Z,2.37
2022-08-08T04:55:04.525Z,1.97
2022-08-08T04:57:34.804Z,1.80
2022-08-08T05:00:06.042Z,2.90
2022-08-08T05:02:35.380Z,2.20
2022-08-08T05:05:03.832Z,2.73
2022-08-08T05:07:41.896Z,1.80
2022-08-08T05:10:12.325Z,2.03
2022-08-08T05:12:43.094Z,2.20
2022-08-08T05:16:47.887Z,2.27
2022-08-08T05:18:18.446Z,1.93
2022-08-08T05:20:50.005Z,2.57
2022-08-08T05:23:19.269Z,2.20
2022-08-08T05:25:48.895Z,2.00
2022-08-08T05:28:48.169Z,1.90
2022-08-08T05:31:19.184Z,2.37
2022-08-08T05:33:56.068Z,2.63
2022-08-08T05:36:27.960Z,1.50
2022-08-08T05:38:58.926Z,1.77
2022-08-08T05:41:28.209Z,1.80
2022-08-08T05:44:02.713Z,2.10
2022-08-08T05:46:34.662Z,1.80
2022-08-08T05:49:07.564Z,2.30
2022-08-08T05:51:48.832Z,2.30
2022-08-08T05:54:27.261Z,2.07
2022-08-08T05:57:08.950Z,2.33
2022-08-08T06:00:00.013Z,2.43
2022-08-08T06:02:48.749Z,1.70
2022-08-08T06:05:33.688Z,2.10
2022-08-08T06:08:09.667Z,2.10
2022-08-08T06:10:50.412Z,2.00
2022-08-08T06:13:23.483Z,2.60
2022-08-08T06:15:56.065Z,2.67
2022-08-08T06:18:26.850Z,1.93
2022-08-08T06:20:57.274Z,2.00
2022-08-08T06:23:53.450Z,1.90
2022-08-08T06:26:43.521Z,1.90
2022-08-08T06:29:26.623Z,1.90
2022-08-08T06:32:11.226Z,2.37
2022-08-08T06:34:56.463Z,2.20
2022-08-08T06:37:40.793Z,2.00
2022-08-08T06:40:16.568Z,2.27
2022-08-08T06:42:55.865Z,1.47
2022-08-08T06:45:25.056Z,1.60
2022-08-08T06:48:01.042Z,1.70
2022-08-08T06:50:33.879Z,1.80
2022-08-08T06:53:14.486Z,1.90
2022-08-08T06:56:00.612Z,1.70
2022-08-08T06:58:33.679Z,2.17
2022-08-08T07:01:24.443Z,1.60
2022-08-08T07:04:40.210Z,1.67
2022-08-08T07:06:46.332Z,1.40
2022-08-08T07:09:17.761Z,2.00
2022-08-08T07:11:51.087Z,1.80
2022-08-08T07:14:20.905Z,2.07
2022-08-08T07:16:54.221Z,1.67
2022-08-08T07:19:29.953Z,1.70
2022-08-08T07:22:05.630Z,1.33
2022-08-08T07:24:45.005Z,2.20
2022-08-08T07:27:16.852Z,1.97
2022-08-08T07:30:01.809Z,2.07
2022-08-08T07:32:31.601Z,1.87
2022-08-08T07:35:02.849Z,2.10
2022-08-08T07:37:56.570Z,1.73
2022-08-08T07:40:29.538Z,2.00
2022-08-08T07:43:01.954Z,2.67
2022-08-08T07:46:05.523Z,2.00
2022-08-08T07:48:23.561Z,2.20
2022-08-08T07:50:54.872Z,2.47
2022-08-08T07:54:01.098Z,2.27
2022-08-08T07:56:35.351Z,1.90
2022-08-08T07:59:04.840Z,1.73
2022-08-08T08:02:35.535Z,2.73
2022-08-08T08:04:29.085Z,2.17
2022-08-08T08:07:00.685Z,3.20
2022-08-08T08:09:35.750Z,2.70
2022-08-08T08:12:04.939Z,1.83
2022-08-08T08:14:40.893Z,2.70
2022-08-08T08:17:11.526Z,2.50
2022-08-08T08:19:45.632Z,2.03
2022-08-08T08:22:16.037Z,2.90
2022-08-08T08:24:58.807Z,2.60
2022-08-08T08:27:36.150Z,2.10
2022-08-08T08:30:04.491Z,2.17
2022-08-08T08:32:36.295Z,2.07
2022-08-08T08:35:06.610Z,2.30
2022-08-08T08:37:47.919Z,2.23
2022-08-08T08:40:25.659Z,2.23
2022-08-08T08:42:55.325Z,2.37
2022-08-08T08:45:26.330Z,2.03
2022-08-08T08:47:58.248Z,2.67
2022-08-08T08:50:33.472Z,2.70
2022-08-08T08:53:27.213Z,2.50
2022-08-08T08:55:56.080Z,2.83
2022-08-08T08:58:33.176Z,2.03
2022-08-08T09:01:08.475Z,2.23
2022-08-08T09:03:47.521Z,2.70
2022-08-08T09:06:28.300Z,2.37
2022-08-08T09:09:03.850Z,1.80
2022-08-08T09:11:47.368Z,1.80
2022-08-08T09:14:25.985Z,2.53
2022-08-08T09:16:54.980Z,2.50
2022-08-08T09:22:02.126Z,2.00
2022-08-08T09:22:13.290Z,2.13
2022-08-08T09:24:56.046Z,1.63
2022-08-08T09:27:56.215Z,2.43
2022-08-08T09:30:17.815Z,1.90
2022-08-08T09:33:54.550Z,2.40
2022-08-08T09:35:46.863Z,1.50
2022-08-08T09:38:20.694Z,2.00
2022-08-08T09:40:53.947Z,1.90
2022-08-08T09:44:04.745Z,2.07
2022-08-08T09:46:25.805Z,2.20
2022-08-08T09:49:04.331Z,2.13
2022-08-08T09:52:06.743Z,2.00
2022-08-08T09:54:43.993Z,2.03
2022-08-08T09:57:16.417Z,1.90
2022-08-08T10:00:14.690Z,2.27
2022-08-08T10:02:40.267Z,2.00
2022-08-08T10:05:15.299Z,1.43
2022-08-08T10:08:01.707Z,2.03
2022-08-08T10:10:31.884Z,1.50
2022-08-08T10:13:13.817Z,1.83
2022-08-08T10:15:59.217Z,1.80
2022-08-08T10:18:29.550Z,1.53
2022-08-08T10:21:03.459Z,1.50
2022-08-08T10:23:44.058Z,1.70
2022-08-08T10:26:31.040Z,2.50
2022-08-08T10:29:11.353Z,1.93
2022-08-08T10:32:00.587Z,2.23
2022-08-08T10:34:29.720Z,2.60
2022-08-08T10:37:00.794Z,1.90
2022-08-08T10:39:31.411Z,1.77
2022-08-08T10:42:16.226Z,2.07
2022-08-08T10:44:45.631Z,1.73
2022-08-08T10:47:18.939Z,2.20
2022-08-08T10:50:01.763Z,2.10
2022-08-08T10:52:32.888Z,2.00
2022-08-08T10:55:06.347Z,2.00
2022-08-08T10:57:49.988Z,2.00
2022-08-08T11:00:22.875Z,2.03
2022-08-08T11:02:55.776Z,1.73
2022-08-08T11:05:25.338Z,1.60
2022-08-08T11:08:38.061Z,1.57
2022-08-08T11:11:08.308Z,1.60
2022-08-08T11:14:00.519Z,2.10
2022-08-08T11:16:34.447Z,2.20
2022-08-08T11:19:06.074Z,2.03
2022-08-08T11:21:41.291Z,2.20
2022-08-08T11:24:10.964Z,1.80
2022-08-08T11:26:56.838Z,1.80
2022-08-08T11:29:51.161Z,1.60
2022-08-08T11:32:22.098Z,2.07
2022-08-08T11:35:27.265Z,1.70
2022-08-08T11:38:39.646Z,1.60
2022-08-08T11:40:43.107Z,1.80
2022-08-08T11:43:17.470Z,2.07
2022-08-08T11:46:09.098Z,1.70
2022-08-08T11:48:35.112Z,1.80
2022-08-08T11:51:30.122Z,1.80
2022-08-08T11:54:01.172Z,1.70
2022-08-08T11:56:35.076Z,1.93
2022-08-08T11:59:10.603Z,1.90
2022-08-08T12:01:39.211Z,1.77
2022-08-08T12:04:10.147Z,2.37
2022-08-08T12:06:40.646Z,2.37
2022-08-08T12:09:17.096Z,2.20
2022-08-08T12:11:49.462Z,1.80
2022-08-08T12:14:23.975Z,2.17
2022-08-08T12:16:57.614Z,1.77
2022-08-08T12:19:37.522Z,2.07
2022-08-08T12:22:21.088Z,1.90
2022-08-08T12:24:53.745Z,2.00
2022-08-08T12:27:27.066Z,1.80
2022-08-08T12:30:21.689Z,1.80
2022-08-08T12:32:54.468Z,1.30
2022-08-08T12:35:24.381Z,1.80
2022-08-08T12:38:07.450Z,1.97
2022-08-08T12:40:54.789Z,1.87
2022-08-08T12:43:31.915Z,1.80
2022-08-08T12:46:02.765Z,1.80
2022-08-08T12:48:36.550Z,1.70
2022-08-08T12:51:10.987Z,1.50
2022-08-08T12:53:58.687Z,1.43
2022-08-08T12:56:34.861Z,1.77
2022-08-08T12:59:14.515Z,2.13
2022-08-08T13:01:43.556Z,1.50
2022-08-08T13:04:24.618Z,1.77
2022-08-08T13:06:55.678Z,2.03
2022-08-08T13:09:33.662Z,1.83
2022-08-08T13:12:29.431Z,1.80
2022-08-08T13:15:00.998Z,2.03
2022-08-08T13:18:09.113Z,1.50
2022-08-08T13:20:21.837Z,1.67
2022-08-08T13:22:51.618Z,2.07
2022-08-08T13:25:35.220Z,1.73
2022-08-08T13:28:03.247Z,1.37
2022-08-08T13:30:31.383Z,1.53
2022-08-08T13:33:01.290Z,1.57
2022-08-08T13:35:38.661Z,1.67
2022-08-08T13:38:12.329Z,1.80
2022-08-08T13:40:44.749Z,1.60
2022-08-08T13:43:16.088Z,2.00
2022-08-08T13:45:47.510Z,1.80
2022-08-08T13:48:19.683Z,1.30
2022-08-08T13:50:57.650Z,1.43
2022-08-08T13:53:59.803Z,1.10
2022-08-08T13:56:44.555Z,1.33
2022-08-08T13:59:32.580Z,1.30
2022-08-08T14:02:07.409Z,1.40
2022-08-08T14:04:35.934Z,1.00
2022-08-08T14:07:05.485Z,1.10
2022-08-08T14:10:05.635Z,1.00
2022-08-08T14:12:28.697Z,1.40
2022-08-08T14:14:57.079Z,1.00
2022-08-08T14:17:58.125Z,2.20
2022-08-08T14:20:15.532Z,1.10
2022-08-08T14:23:10.217Z,1.07
2022-08-08T14:25:53.990Z,1.07
2022-08-08T14:28:29.277Z,1.00
2022-08-08T14:31:09.332Z,1.17
2022-08-08T14:33:39.076Z,1.10
2022-08-08T14:36:11.465Z,1.00
2022-08-08T14:38:51.549Z,1.00
2022-08-08T14:41:54.167Z,1.00
2022-08-08T14:44:19.597Z,0.90
2022-08-08T14:47:00.131Z,1.00
2022-08-08T14:49:37.880Z,1.00
2022-08-08T14:52:23.042Z,1.17
2022-08-08T14:54:51.501Z,0.90
2022-08-08T14:58:00.940Z,0.93
2022-08-08T15:00:11.803Z,1.00
2022-08-08T15:02:58.798Z,1.10
2022-08-08T15:05:42.786Z,0.90
2022-08-08T15:08:21.951Z,0.70
2022-08-08T15:11:01.531Z,1.10
2022-08-08T15:13:39.886Z,1.10
2022-08-08T15:16:14.448Z,0.70
2022-08-08T15:18:50.045Z,0.70
2022-08-08T15:21:20.796Z,1.10
2022-08-08T15:23:50.937Z,1.00
2022-08-08T15:26:20.197Z,1.13
2022-08-08T15:28:53.158Z,0.70
2022-08-08T15:31:49.011Z,1.33
2022-08-08T15:34:18.636Z,1.10
2022-08-08T15:37:01.877Z,1.20
2022-08-08T15:39:38.160Z,0.90
2022-08-08T15:42:13.279Z,1.00
2022-08-08T15:44:46.925Z,1.10
2022-08-08T15:47:19.162Z,1.00
2022-08-08T15:49:48.679Z,1.27
2022-08-08T15:52:17.914Z,1.00
2022-08-08T15:54:47.944Z,1.03
2022-08-08T15:57:20.166Z,1.10
2022-08-08T16:00:05.315Z,1.40
2022-08-08T16:02:43.993Z,1.20
2022-08-08T16:05:14.379Z,1.10
2022-08-08T16:07:51.315Z,1.50
2022-08-08T16:13:20.913Z,1.10
2022-08-08T16:13:30.575Z,1.37
2022-08-08T16:16:13.255Z,1.67
2022-08-08T16:18:56.253Z,1.60
2022-08-08T16:21:27.255Z,1.40
2022-08-08T16:23:56.554Z,1.60
2022-08-08T16:26:34.783Z,1.60
2022-08-08T16:29:09.595Z,1.50
2022-08-08T16:31:42.051Z,1.70
2022-08-08T16:34:20.570Z,1.53
2022-08-08T16:36:50.872Z,1.70
2022-08-08T16:39:48.905Z,1.50
2022-08-08T16:42:18.031Z,1.47
2022-08-08T16:44:47.415Z,1.50
2022-08-08T16:47:40.608Z,1.50
2022-08-08T16:50:15.178Z,2.00
2022-08-08T16:55:04.913Z,1.50
2022-08-08T16:55:55.162Z,1.50
2022-08-08T16:58:25.843Z,1.60
2022-08-08T17:00:55.038Z,1.00
2022-08-08T17:03:25.285Z,1.60
2022-08-08T17:06:35.574Z,1.40
2022-08-08T17:09:00.727Z,1.70
2022-08-08T17:11:39.476Z,1.50
2022-08-08T17:14:19.378Z,1.30
2022-08-08T17:16:51.784Z,1.40
2022-08-08T17:19:27.360Z,1.10
2022-08-08T17:22:01.248Z,1.27
2022-08-08T17:24:30.956Z,1.43
2022-08-08T17:27:00.042Z,1.83
2022-08-08T17:29:28.487Z,1.93
2022-08-08T17:32:02.717Z,1.70
2022-08-08T17:34:52.650Z,1.30
2022-08-08T17:37:20.703Z,1.20
2022-08-08T17:40:12.448Z,1.43
2022-08-08T17:42:38.783Z,1.40
2022-08-08T17:45:14.363Z,1.50
2022-08-08T17:47:51.275Z,1.30
2022-08-08T17:50:19.851Z,1.70
2022-08-08T17:52:49.391Z,1.20
2022-08-08T17:56:07.048Z,1.40
2022-08-08T17:58:05.447Z,1.30
2022-08-08T18:00:33.555Z,1.40
2022-08-08T18:03:13.691Z,1.60
2022-08-08T18:05:47.926Z,1.30
2022-08-08T18:08:24.802Z,1.90
2022-08-08T18:11:08.089Z,1.70
2022-08-08T18:13:41.904Z,1.33
2022-08-08T18:16:11.259Z,1.50
2022-08-08T18:18:42.694Z,1.77
2022-08-08T18:21:35.317Z,1.40
2022-08-08T18:24:00.866Z,1.60
2022-08-08T18:26:30.169Z,1.60
2022-08-08T18:28:58.637Z,1.40
2022-08-08T18:31:28.647Z,1.93
2022-08-08T18:34:25.589Z,1.40
2022-08-08T18:36:46.215Z,1.50
2022-08-08T18:39:16.475Z,1.50
2022-08-08T18:41:58.314Z,1.67
2022-08-08T18:44:33.106Z,2.10
2022-08-08T18:47:04.818Z,2.10
2022-08-08T18:49:40.958Z,1.50
2022-08-08T18:52:23.209Z,1.67
2022-08-08T18:54:59.792Z,1.70
2022-08-08T18:57:31.727Z,1.93
2022-08-08T19:00:10.696Z,1.43
2022-08-08T19:02:48.480Z,1.80
2022-08-08T19:05:24.336Z,2.00
2022-08-08T19:08:00.332Z,2.17
2022-08-08T19:10:29.882Z,1.80
2022-08-08T19:12:58.197Z,2.73
2022-08-08T19:15:34.364Z,1.70
2022-08-08T19:18:33.362Z,1.90
2022-08-08T19:20:51.969Z,1.70
2022-08-08T19:23:21.642Z,1.90
2022-08-08T19:26:28.332Z,2.40
2022-08-08T19:28:41.848Z,1.90
2022-08-08T19:31:13.144Z,1.70
2022-08-08T19:34:04.880Z,2.23
2022-08-08T19:36:33.326Z,2.00
2022-08-08T19:39:01.383Z,1.90
2022-08-08T19:41:33.721Z,2.10
2022-08-08T19:44:12.582Z,1.63
2022-08-08T19:46:41.607Z,1.97
2022-08-08T19:49:13.003Z,1.87
2022-08-08T19:51:43.352Z,2.07
2022-08-08T19:54:12.456Z,2.30
2022-08-08T19:56:48.985Z,1.70
2022-08-08T19:59:22.194Z,2.03
2022-08-08T20:02:02.657Z,2.03
2022-08-08T20:04:32.359Z,1.93
2022-08-08T20:07:05.060Z,2.37
2022-08-08T20:09:45.041Z,1.70
2022-08-08T20:12:34.469Z,1.93
2022-08-08T20:15:15.010Z,1.60
2022-08-08T20:17:46.327Z,2.43
2022-08-08T20:20:19.564Z,2.27
2022-08-08T20:22:53.986Z,2.03
2022-08-08T20:25:26.375Z,2.20
2022-08-08T20:28:05.710Z,2.37
2022-08-08T20:30:55.729Z,2.00
2022-08-08T20:35:59.532Z,2.30
2022-08-08T20:38:34.415Z,1.80
2022-08-08T20:41:05.968Z,1.70
2022-08-08T20:43:49.671Z,1.70
2022-08-08T20:46:20.829Z,2.07
2022-08-08T20:48:51.298Z,1.87
2022-08-08T20:51:20.789Z,1.90
2022-08-08T20:54:01.104Z,2.20
2022-08-08T20:56:35.184Z,1.77
2022-08-08T20:59:09.252Z,2.10
2022-08-08T21:02:05.267Z,2.27
2022-08-08T21:04:27.840Z,1.97
2022-08-08T21:06:56.235Z,1.67
2022-08-08T21:09:31.827Z,1.80
2022-08-08T21:12:12.958Z,1.90
2022-08-08T21:14:42.682Z,2.50
2022-08-08T21:17:17.397Z,1.33
2022-08-08T21:19:47.997Z,1.70
2022-08-08T21:22:16.486Z,1.80
2022-08-08T21:24:52.466Z,1.63
2022-08-08T21:28:05.387Z,2.10
2022-08-08T21:30:19.330Z,1.77
2022-08-08T21:32:51.779Z,2.13
2022-08-08T21:36:19.183Z,1.80
2022-08-08T21:38:16.362Z,1.87
2022-08-08T21:40:54.725Z,1.63
2022-08-08T21:43:23.434Z,1.97
2022-08-08T21:48:12.899Z,1.73
2022-08-08T21:48:44.661Z,1.90
2022-08-08T21:51:45.945Z,1.50
2022-08-08T21:54:32.215Z,2.10
2022-08-08T21:56:54.600Z,2.20
2022-08-08T21:59:22.939Z,2.13
2022-08-08T22:01:55.528Z,1.70
2022-08-08T22:04:24.587Z,1.70
2022-08-08T22:06:54.044Z,1.77
2022-08-08T22:09:26.816Z,1.47
2022-08-08T22:12:08.920Z,1.90
2022-08-08T22:14:37.999Z,2.30
2022-08-08T22:17:12.269Z,1.87
2022-08-08T22:20:11.041Z,1.70
2022-08-08T22:22:31.572Z,2.20
2022-08-08T22:25:12.449Z,2.20
2022-08-08T22:28:03.046Z,1.63
2022-08-08T22:30:40.946Z,1.70
2022-08-08T22:34:11.260Z,2.20
2022-08-08T22:36:04.084Z,2.27
2022-08-08T22:38:48.051Z,1.90
2022-08-08T22:41:21.123Z,1.87
2022-08-08T22:44:02.906Z,1.80
2022-08-08T22:46:34.297Z,1.80
2022-08-08T22:49:09.355Z,2.20
2022-08-08T22:51:42.548Z,2.23
2022-08-08T22:54:30.100Z,2.10
2022-08-08T22:57:11.269Z,1.90
2022-08-08T22:59:48.345Z,2.47
2022-08-08T23:02:28.671Z,1.90
2022-08-08T23:05:01.948Z,2.13
2022-08-08T23:07:52.085Z,3.00
2022-08-08T23:10:21.420Z,2.20
2022-08-08T23:12:53.360Z,2.23
2022-08-08T23:16:38.459Z,2.60
2022-08-08T23:18:12.046Z,1.93
2022-08-08T23:20:43.363Z,1.97
2022-08-08T23:23:14.715Z,1.60
2022-08-08T23:25:48.809Z,2.03
2022-08-08T23:28:19.128Z,1.90
2022-08-08T23:30:47.934Z,2.23
2022-08-08T23:33:20.884Z,2.17
2022-08-08T23:36:07.826Z,1.87
2022-08-08T23:38:43.963Z,2.40
2022-08-08T23:41:22.857Z,2.27
2022-08-08T23:43:56.541Z,1.90
2022-08-08T23:49:08.139Z,2.40
2022-08-08T23:49:18.109Z,2.23
2022-08-08T23:52:05.381Z,2.20
2022-08-08T23:54:43.800Z,2.57
2022-08-08T23:57:38.706Z,2.57
